Time;durP1;ratioP1;P1;durP2;ratioP2;P2;SDS_P1;SDS_P2;PMS_P1;PMS_P2;Temp;Humidity;BMP_temperature;BMP_pressure;BME280_temperature;BME280_humidity;BME280_pressure;Samples;Min_cycle;Max_cycle;Signal;HPM_P1;HPM_P2
2022/09/15 00:02:38;0.00;0.00;0.62;0.00;0.00;0.62;6.70;3.73;;;23.50;35.70;;;;;;2249344;61;20427;-64
2022/09/15 00:05:22;0.00;0.00;0.62;0.00;0.00;0.62;5.40;3.37;;;23.50;35.80;;;;;;2249671;61;20623;-68
2022/09/15 00:08:07;0.00;0.00;0.62;0.00;0.00;0.62;5.93;3.17;;;23.40;35.80;;;;;;2249918;61;20356;-68
2022/09/15 00:10:56;0.00;0.00;0.62;0.00;0.00;0.62;6.10;3.43;;;23.40;35.90;;;;;;2248921;61;20372;-67
2022/09/15 00:13:41;0.00;0.00;0.62;0.00;0.00;0.62;5.77;3.37;;;23.40;36.00;;;;;;2249244;61;20392;-69
2022/09/15 00:16:30;0.00;0.00;0.62;0.00;0.00;0.62;6.43;3.63;;;23.40;36.00;;;;;;2249362;61;20764;-66
2022/09/15 00:19:15;0.00;0.00;0.62;0.00;0.00;0.62;3.90;3.10;;;23.30;35.90;;;;;;2249158;61;20361;-67
2022/09/15 00:22:00;0.00;0.00;0.62;0.00;0.00;0.62;5.03;3.80;;;23.30;35.90;;;;;;2249518;61;20389;-67
2022/09/15 00:24:48;0.00;0.00;0.62;0.00;0.00;0.62;5.57;3.60;;;23.30;35.90;;;;;;2249324;61;20761;-67
2022/09/15 00:27:33;0.00;0.00;0.62;0.00;0.00;0.62;5.37;3.60;;;23.30;36.00;;;;;;2249590;61;20356;-65
2022/09/15 00:30:18;0.00;0.00;0.62;0.00;0.00;0.62;4.93;3.40;;;23.20;36.00;;;;;;2249819;61;20380;-68
2022/09/15 00:33:04;0.00;0.00;0.62;0.00;0.00;0.62;5.70;3.30;;;23.20;36.00;;;;;;2249345;61;20397;-67
2022/09/15 00:35:52;0.00;0.00;0.62;0.00;0.00;0.62;6.13;3.43;;;23.10;36.00;;;;;;2249441;61;20364;-66
2022/09/15 00:38:37;0.00;0.00;0.62;0.00;0.00;0.62;5.07;3.10;;;23.10;36.10;;;;;;2253242;61;20412;-68
2022/09/15 00:41:23;0.00;0.00;0.62;0.00;0.00;0.62;6.17;4.10;;;23.10;36.30;;;;;;2253347;61;20649;-66
2022/09/15 00:44:49;0.00;0.00;0.62;0.00;0.00;0.62;5.20;3.63;;;23.00;36.20;;;;;;2253222;61;20771;-66
2022/09/15 00:47:37;0.00;0.00;0.62;0.00;0.00;0.62;5.60;3.40;;;23.00;36.30;;;;;;2253103;61;20585;-67
2022/09/15 00:50:23;0.00;0.00;0.62;0.00;0.00;0.62;5.73;3.20;;;22.90;36.40;;;;;;2253238;61;20364;-67
2022/09/15 00:53:10;0.00;0.00;0.62;0.00;0.00;0.62;4.97;2.87;;;22.90;36.50;;;;;;2253037;61;20665;-66
2022/09/15 00:55:56;0.00;0.00;0.62;0.00;0.00;0.62;5.97;3.00;;;22.90;36.50;;;;;;2253417;61;20367;-68
2022/09/15 00:58:47;0.00;0.00;0.62;0.00;0.00;0.62;4.60;3.70;;;22.80;36.60;;;;;;2252738;61;20356;-67
2022/09/15 01:01:32;0.00;0.00;0.62;0.00;0.00;0.62;5.13;3.63;;;22.80;36.60;;;;;;2253224;61;20360;-67
2022/09/15 01:04:17;0.00;0.00;0.62;0.00;0.00;0.62;6.63;3.80;;;22.70;36.60;;;;;;2253219;61;20383;-65
2022/09/15 01:07:06;0.00;0.00;0.62;0.00;0.00;0.62;6.30;3.90;;;22.70;36.60;;;;;;2249177;61;20376;-66
2022/09/15 01:09:55;0.00;0.00;0.62;0.00;0.00;0.62;4.20;3.37;;;22.60;36.70;;;;;;2249331;61;20373;-66
2022/09/15 01:12:41;0.00;0.00;0.62;0.00;0.00;0.62;5.67;3.37;;;22.60;36.70;;;;;;2248865;61;20372;-65
2022/09/15 01:15:48;0.00;0.00;0.62;0.00;0.00;0.62;3.87;2.90;;;22.60;36.80;;;;;;2249222;61;20360;-66
2022/09/15 01:18:45;0.00;0.00;0.62;0.00;0.00;0.62;4.90;2.77;;;22.60;36.90;;;;;;2249307;61;20541;-66
2022/09/15 01:21:40;0.00;0.00;0.62;0.00;0.00;0.62;6.30;2.40;;;22.60;37.60;;;;;;2249199;61;20705;-66
2022/09/15 01:25:05;0.00;0.00;0.62;0.00;0.00;0.62;3.83;1.87;;;22.60;37.60;;;;;;2249040;61;20377;-66
2022/09/15 01:28:18;0.00;0.00;0.62;0.00;0.00;0.62;5.13;2.17;;;22.70;37.00;;;;;;2249114;61;20579;-68
2022/09/15 01:31:10;0.00;0.00;0.62;0.00;0.00;0.62;7.33;2.73;;;22.70;36.90;;;;;;2248934;61;20632;-67
2022/09/15 01:34:04;0.00;0.00;0.62;0.00;0.00;0.62;6.37;3.47;;;22.70;36.90;;;;;;2249072;61;20376;-67
2022/09/15 01:36:56;0.00;0.00;0.62;0.00;0.00;0.62;4.00;3.33;;;22.70;36.80;;;;;;2249410;61;20441;-66
2022/09/15 01:39:46;0.00;0.00;0.62;0.00;0.00;0.62;5.23;3.53;;;22.70;36.70;;;;;;2248965;61;20403;-67
2022/09/15 01:42:33;0.00;0.00;0.62;0.00;0.00;0.62;4.40;3.63;;;22.70;36.70;;;;;;2248869;61;20593;-67
2022/09/15 01:45:23;0.00;0.00;0.62;0.00;0.00;0.62;6.37;3.40;;;22.70;36.70;;;;;;2249249;61;20412;-68
2022/09/15 01:48:10;0.00;0.00;0.62;0.00;0.00;0.62;6.70;4.40;;;22.70;36.80;;;;;;2249301;61;20365;-67
2022/09/15 01:51:00;0.00;0.00;0.62;0.00;0.00;0.62;7.30;4.00;;;22.60;36.70;;;;;;2249042;61;20412;-67
2022/09/15 01:53:47;0.00;0.00;0.62;0.00;0.00;0.62;4.47;2.90;;;22.60;36.80;;;;;;2249228;61;20384;-63
2022/09/15 01:56:32;0.00;0.00;0.62;0.00;0.00;0.62;7.00;2.60;;;22.50;36.70;;;;;;2249615;61;20388;-67
2022/09/15 01:59:17;0.00;0.00;0.62;0.00;0.00;0.62;2.90;2.37;;;22.50;36.80;;;;;;2250043;61;20700;-69
2022/09/15 02:02:06;0.00;0.00;0.62;0.00;0.00;0.62;3.03;1.80;;;22.50;36.80;;;;;;2249870;61;20381;-68
2022/09/15 02:04:56;0.00;0.00;0.62;0.00;0.00;0.62;4.37;2.33;;;22.50;36.80;;;;;;2249552;61;20431;-68
2022/09/15 02:07:49;0.00;0.00;0.62;0.00;0.00;0.62;6.90;2.53;;;22.50;36.80;;;;;;2249896;61;20361;-67
2022/09/15 02:10:42;0.00;0.00;0.62;0.00;0.00;0.62;4.10;3.10;;;22.60;36.90;;;;;;2250094;61;20713;-69
2022/09/15 02:13:38;0.00;0.00;0.62;0.00;0.00;0.62;7.70;3.20;;;22.60;36.90;;;;;;2249853;61;20446;-67
2022/09/15 02:16:26;0.00;0.00;0.62;0.00;0.00;0.62;4.00;3.03;;;22.60;36.80;;;;;;2249657;61;20377;-66
2022/09/15 02:19:18;0.00;0.00;0.62;0.00;0.00;0.62;4.97;3.40;;;22.60;37.50;;;;;;2249676;61;20612;-69
2022/09/15 02:22:10;0.00;0.00;0.62;0.00;0.00;0.62;6.07;4.70;;;22.60;36.80;;;;;;2249731;61;20412;-65
2022/09/15 02:25:01;0.00;0.00;0.62;0.00;0.00;0.62;4.33;3.50;;;22.60;36.80;;;;;;2249757;61;21008;-65
2022/09/15 02:27:50;0.00;0.00;0.62;0.00;0.00;0.62;5.13;3.20;;;22.60;36.80;;;;;;2249723;61;20626;-66
2022/09/15 02:30:39;0.00;0.00;0.62;0.00;0.00;0.62;6.37;3.50;;;22.60;36.80;;;;;;2249734;61;20432;-65
2022/09/15 02:33:31;0.00;0.00;0.62;0.00;0.00;0.62;5.27;3.50;;;22.60;36.80;;;;;;2249353;61;20416;-66
2022/09/15 02:36:19;0.00;0.00;0.62;0.00;0.00;0.62;6.33;3.77;;;22.60;36.90;;;;;;2262800;61;20573;-67
2022/09/15 02:39:11;0.00;0.00;0.62;0.00;0.00;0.62;5.30;4.37;;;22.60;36.80;;;;;;2249740;61;20367;-67
2022/09/15 02:41:58;0.00;0.00;0.62;0.00;0.00;0.62;5.40;4.50;;;22.50;36.80;;;;;;2249401;61;20360;-65
2022/09/15 02:44:43;0.00;0.00;0.62;0.00;0.00;0.62;5.63;4.20;;;22.50;36.80;;;;;;2249730;61;20428;-66
2022/09/15 02:47:28;0.00;0.00;0.62;0.00;0.00;0.62;5.77;4.07;;;22.50;36.80;;;;;;2249826;61;20392;-66
2022/09/15 02:50:13;0.00;0.00;0.62;0.00;0.00;0.62;6.40;4.80;;;22.50;36.80;;;;;;2249735;61;20380;-67
2022/09/15 02:52:58;0.00;0.00;0.62;0.00;0.00;0.62;9.80;4.70;;;22.40;36.80;;;;;;2249324;61;20806;-66
2022/09/15 02:55:44;0.00;0.00;0.62;0.00;0.00;0.62;6.70;4.17;;;22.40;36.90;;;;;;2249905;61;20366;-66
2022/09/15 02:58:28;0.00;0.00;0.62;0.00;0.00;0.62;8.20;5.17;;;22.30;36.80;;;;;;2249610;61;20465;-67
2022/09/15 03:01:14;0.00;0.00;0.62;0.00;0.00;0.62;6.80;5.00;;;22.30;36.90;;;;;;2249655;61;20609;-68
2022/09/15 03:04:01;0.00;0.00;0.62;0.00;0.00;0.62;6.97;4.97;;;22.30;37.00;;;;;;2249484;61;20436;-67
2022/09/15 03:06:45;0.00;0.00;0.62;0.00;0.00;0.62;5.37;4.83;;;22.20;36.90;;;;;;2275080;61;20383;-65
2022/09/15 03:09:30;0.00;0.00;0.62;0.00;0.00;0.62;6.77;5.50;;;22.10;36.90;;;;;;2249768;61;20618;-66
2022/09/15 03:12:16;0.00;0.00;0.62;0.00;0.00;0.62;7.87;5.00;;;22.10;37.00;;;;;;2249274;61;20603;-68
2022/09/15 03:15:01;0.00;0.00;0.62;0.00;0.00;0.62;10.57;6.60;;;22.10;37.20;;;;;;2249514;61;20576;-67
2022/09/15 03:17:47;0.00;0.00;0.62;0.00;0.00;0.62;7.33;5.53;;;22.00;37.10;;;;;;2249555;61;20436;-68
2022/09/15 03:20:31;0.00;0.00;0.62;0.00;0.00;0.62;9.10;5.60;;;22.00;37.10;;;;;;2249953;61;20400;-68
2022/09/15 03:23:16;0.00;0.00;0.62;0.00;0.00;0.62;6.53;4.93;;;21.90;37.70;;;;;;2249702;61;20432;-67
2022/09/15 03:26:01;0.00;0.00;0.62;0.00;0.00;0.62;6.00;4.47;;;21.90;37.10;;;;;;2249532;61;20360;-66
2022/09/15 03:28:47;0.00;0.00;0.62;0.00;0.00;0.62;7.87;3.50;;;21.90;37.10;;;;;;2249667;61;20365;-66
2022/09/15 03:31:32;0.00;0.00;0.62;0.00;0.00;0.62;5.10;3.33;;;21.80;37.00;;;;;;2249458;61;20364;-68
2022/09/15 03:34:17;0.00;0.00;0.62;0.00;0.00;0.62;6.30;4.63;;;21.90;37.20;;;;;;2249238;61;20361;-66
2022/09/15 03:37:02;0.00;0.00;0.62;0.00;0.00;0.62;4.80;4.10;;;21.80;37.20;;;;;;2259818;61;20736;-65
2022/09/15 03:39:47;0.00;0.00;0.62;0.00;0.00;0.62;6.60;3.60;;;21.80;37.20;;;;;;2249561;61;20367;-68
2022/09/15 03:42:32;0.00;0.00;0.62;0.00;0.00;0.62;7.20;3.13;;;21.80;37.20;;;;;;2249488;61;20457;-66
2022/09/15 03:45:18;0.00;0.00;0.62;0.00;0.00;0.62;5.00;3.83;;;21.80;37.30;;;;;;2249819;61;20392;-66
2022/09/15 03:48:04;0.00;0.00;0.62;0.00;0.00;0.62;6.40;4.10;;;21.80;37.20;;;;;;2249029;61;20474;-64
2022/09/15 03:50:50;0.00;0.00;0.62;0.00;0.00;0.62;5.40;3.73;;;21.80;37.30;;;;;;2249407;61;20360;-69
2022/09/15 03:53:36;0.00;0.00;0.62;0.00;0.00;0.62;6.13;4.27;;;21.90;37.40;;;;;;2249490;61;20404;-68
2022/09/15 03:56:25;0.00;0.00;0.62;0.00;0.00;0.62;7.40;4.40;;;21.90;37.30;;;;;;2249428;61;20381;-68
2022/09/15 03:59:09;0.00;0.00;0.62;0.00;0.00;0.62;6.27;3.80;;;21.80;37.20;;;;;;2249595;61;20405;-65
2022/09/15 04:01:55;0.00;0.00;0.62;0.00;0.00;0.62;9.53;3.97;;;21.80;37.10;;;;;;2249428;61;20361;-65
2022/09/15 04:04:40;0.00;0.00;0.62;0.00;0.00;0.62;10.80;5.90;;;21.80;37.20;;;;;;2249735;61;20388;-67
2022/09/15 04:07:25;0.00;0.00;0.62;0.00;0.00;0.62;5.03;3.60;;;21.80;37.00;;;;;;2477953;53;20350;-69
2022/09/15 04:10:10;0.00;0.00;0.62;0.00;0.00;0.62;4.73;3.63;;;21.80;37.00;;;;;;2245519;61;20393;-68
2022/09/15 04:12:55;0.00;0.00;0.62;0.00;0.00;0.62;6.10;4.10;;;21.80;37.00;;;;;;2245230;61;20380;-66
2022/09/15 04:15:40;0.00;0.00;0.62;0.00;0.00;0.62;4.80;4.00;;;21.80;37.00;;;;;;2245573;61;20362;-67
2022/09/15 04:18:27;0.00;0.00;0.62;0.00;0.00;0.62;5.10;3.30;;;21.80;37.00;;;;;;2245252;61;20389;-66
2022/09/15 04:21:14;0.00;0.00;0.62;0.00;0.00;0.62;4.10;3.13;;;21.70;36.90;;;;;;2245385;61;20377;-69
2022/09/15 04:23:59;0.00;0.00;0.62;0.00;0.00;0.62;4.00;3.50;;;21.70;36.90;;;;;;2245530;61;20390;-69
2022/09/15 04:26:44;0.00;0.00;0.62;0.00;0.00;0.62;5.93;3.73;;;21.70;36.90;;;;;;2245493;61;20574;-67
2022/09/15 04:29:29;0.00;0.00;0.62;0.00;0.00;0.62;8.40;3.23;;;21.70;36.90;;;;;;2245191;61;20698;-66
2022/09/15 04:32:13;0.00;0.00;0.62;0.00;0.00;0.62;5.40;3.73;;;21.70;36.90;;;;;;2244858;61;20589;-69
2022/09/15 04:35:00;0.00;0.00;0.62;0.00;0.00;0.62;4.37;3.20;;;21.70;36.90;;;;;;2245637;61;20458;-69
2022/09/15 04:37:45;0.00;0.00;0.62;0.00;0.00;0.62;4.40;3.20;;;21.60;37.00;;;;;;2277737;58;20735;-69
2022/09/15 04:40:30;0.00;0.00;0.62;0.00;0.00;0.62;4.10;2.80;;;21.60;37.10;;;;;;2253086;61;20627;-65
2022/09/15 04:43:16;0.00;0.00;0.62;0.00;0.00;0.62;6.43;4.03;;;21.60;37.20;;;;;;2253401;61;20452;-65
2022/09/15 04:46:00;0.00;0.00;0.62;0.00;0.00;0.62;5.13;3.40;;;21.60;37.30;;;;;;2253453;61;20767;-65
2022/09/15 04:48:46;0.00;0.00;0.62;0.00;0.00;0.62;6.30;3.70;;;21.60;37.40;;;;;;2253396;61;20363;-67
2022/09/15 04:51:33;0.00;0.00;0.62;0.00;0.00;0.62;6.30;3.40;;;21.50;37.40;;;;;;2252953;61;20407;-64
2022/09/15 04:54:18;0.00;0.00;0.62;0.00;0.00;0.62;4.60;3.60;;;21.50;37.50;;;;;;2253112;61;20740;-64
2022/09/15 04:57:03;0.00;0.00;0.62;0.00;0.00;0.62;5.97;3.00;;;21.50;37.60;;;;;;2253272;61;20411;-66
2022/09/15 04:59:48;0.00;0.00;0.62;0.00;0.00;0.62;4.90;3.30;;;21.40;37.60;;;;;;2253488;61;20411;-68
2022/09/15 05:02:32;0.00;0.00;0.62;0.00;0.00;0.62;4.60;3.20;;;21.40;37.60;;;;;;2252920;61;20403;-66
2022/09/15 05:05:18;0.00;0.00;0.62;0.00;0.00;0.62;6.00;2.53;;;21.40;37.70;;;;;;2250479;61;20397;-68
2022/09/15 05:08:04;0.00;0.00;0.62;0.00;0.00;0.62;5.40;3.70;;;21.40;37.80;;;;;;2245411;61;20600;-66
2022/09/15 05:10:50;0.00;0.00;0.62;0.00;0.00;0.62;4.73;3.60;;;21.40;37.90;;;;;;2244823;61;20369;-66
2022/09/15 05:13:35;0.00;0.00;0.62;0.00;0.00;0.62;4.30;3.30;;;21.40;37.90;;;;;;2245224;61;20413;-67
2022/09/15 05:16:22;0.00;0.00;0.62;0.00;0.00;0.62;5.30;3.37;;;21.40;37.90;;;;;;2245520;61;20443;-69
2022/09/15 05:19:06;0.00;0.00;0.62;0.00;0.00;0.62;4.20;3.20;;;21.40;37.90;;;;;;2245227;61;20722;-66
2022/09/15 05:21:51;0.00;0.00;0.62;0.00;0.00;0.62;6.37;4.00;;;21.40;38.00;;;;;;2245242;61;20721;-68
2022/09/15 05:24:37;0.00;0.00;0.62;0.00;0.00;0.62;4.33;3.30;;;21.40;38.00;;;;;;2245178;61;20748;-68
2022/09/15 05:27:21;0.00;0.00;0.62;0.00;0.00;0.62;5.83;3.60;;;21.40;38.00;;;;;;2245296;61;20369;-65
2022/09/15 05:30:08;0.00;0.00;0.62;0.00;0.00;0.62;4.70;3.37;;;21.40;38.10;;;;;;2246016;61;20362;-66
2022/09/15 05:32:52;0.00;0.00;0.62;0.00;0.00;0.62;6.33;4.07;;;21.30;38.00;;;;;;2245775;61;20413;-66
2022/09/15 05:35:37;0.00;0.00;0.62;0.00;0.00;0.62;6.23;4.10;;;21.30;38.10;;;;;;2245918;61;20365;-68
2022/09/15 05:38:23;0.00;0.00;0.62;0.00;0.00;0.62;7.60;3.67;;;21.30;38.20;;;;;;2246142;61;20366;-67
2022/09/15 05:41:12;0.00;0.00;0.62;0.00;0.00;0.62;5.03;3.90;;;21.30;38.20;;;;;;2246426;61;21057;-65
2022/09/15 05:43:58;0.00;0.00;0.62;0.00;0.00;0.62;4.70;3.50;;;21.30;38.30;;;;;;2245941;61;20389;-67
2022/09/15 05:46:42;0.00;0.00;0.62;0.00;0.00;0.62;4.63;3.00;;;21.30;38.30;;;;;;2245846;61;20606;-68
2022/09/15 05:49:28;0.00;0.00;0.62;0.00;0.00;0.62;4.77;3.33;;;21.30;38.30;;;;;;2245776;61;20722;-66
2022/09/15 05:52:12;0.00;0.00;0.62;0.00;0.00;0.62;5.03;4.47;;;21.30;38.30;;;;;;2245822;61;20761;-67
2022/09/15 05:54:57;0.00;0.00;0.62;0.00;0.00;0.62;4.50;2.87;;;21.30;38.30;;;;;;2245471;61;20361;-66
2022/09/15 05:57:43;0.00;0.00;0.62;0.00;0.00;0.62;5.97;3.40;;;21.30;38.20;;;;;;2245329;61;20412;-66
2022/09/15 06:00:28;0.00;0.00;0.62;0.00;0.00;0.62;4.77;3.43;;;21.30;38.30;;;;;;2246008;61;20478;-68
2022/09/15 06:03:14;0.00;0.00;0.62;0.00;0.00;0.62;4.90;3.97;;;21.30;38.40;;;;;;2245818;61;20400;-68
2022/09/15 06:05:59;0.00;0.00;0.62;0.00;0.00;0.62;4.47;3.13;;;21.30;38.40;;;;;;2246730;61;20377;-66
2022/09/15 06:08:48;0.00;0.00;0.62;0.00;0.00;0.62;3.10;2.73;;;21.30;38.40;;;;;;2246228;61;20368;-68
2022/09/15 06:11:32;0.00;0.00;0.62;0.00;0.00;0.62;5.23;3.10;;;21.30;38.50;;;;;;2245388;61;20380;-66
2022/09/15 06:14:18;0.00;0.00;0.62;0.00;0.00;0.62;7.57;3.30;;;21.30;38.50;;;;;;2246010;61;20346;-69
2022/09/15 06:17:03;0.00;0.00;0.62;0.00;0.00;0.62;7.27;3.50;;;21.30;38.60;;;;;;2246069;61;20369;-69
2022/09/15 06:19:48;0.00;0.00;0.62;0.00;0.00;0.62;3.93;2.97;;;21.30;38.60;;;;;;2245942;61;20577;-66
2022/09/15 06:22:33;0.00;0.00;0.62;0.00;0.00;0.62;3.50;2.33;;;21.30;38.70;;;;;;2245785;61;20469;-68
2022/09/15 06:25:18;0.00;0.00;0.62;0.00;0.00;0.62;4.93;2.77;;;21.30;38.70;;;;;;2246142;61;20405;-66
2022/09/15 06:28:02;0.00;0.00;0.62;0.00;0.00;0.62;3.53;2.90;;;21.30;38.80;;;;;;2245545;61;20441;-69
2022/09/15 06:30:50;0.00;0.00;0.62;0.00;0.00;0.62;3.57;2.97;;;21.20;38.80;;;;;;2246012;61;20585;-67
2022/09/15 06:33:35;0.00;0.00;0.62;0.00;0.00;0.62;6.63;3.53;;;21.30;38.90;;;;;;2245890;61;20628;-65
2022/09/15 06:36:22;0.00;0.00;0.62;0.00;0.00;0.62;3.13;2.73;;;21.30;38.90;;;;;;2249488;61;20771;-65
2022/09/15 06:39:15;0.00;0.00;0.62;0.00;0.00;0.62;4.30;2.67;;;21.30;38.90;;;;;;2249872;61;20365;-64
2022/09/15 06:42:00;0.00;0.00;0.62;0.00;0.00;0.62;3.30;2.17;;;21.30;38.90;;;;;;2249371;61;20401;-69
2022/09/15 06:44:46;0.00;0.00;0.62;0.00;0.00;0.62;4.67;2.37;;;21.30;39.00;;;;;;2249440;61;20464;-70
2022/09/15 06:47:33;0.00;0.00;0.62;0.00;0.00;0.62;2.70;1.87;;;21.30;39.00;;;;;;2249730;61;20453;-74
2022/09/15 06:50:17;0.00;0.00;0.62;0.00;0.00;0.62;5.40;1.80;;;21.30;39.00;;;;;;2249435;61;20369;-70
2022/09/15 06:53:02;0.00;0.00;0.62;0.00;0.00;0.62;7.83;3.00;;;21.30;39.00;;;;;;2249808;61;20415;-66
2022/09/15 06:55:46;0.00;0.00;0.62;0.00;0.00;0.62;3.10;2.63;;;21.30;39.00;;;;;;2249743;61;20360;-70
2022/09/15 06:58:34;0.00;0.00;0.62;0.00;0.00;0.62;6.40;2.80;;;21.40;39.20;;;;;;2249910;61;20419;-67
2022/09/15 07:01:22;0.00;0.00;0.62;0.00;0.00;0.62;6.80;2.50;;;21.40;39.20;;;;;;2249805;61;20420;-67
2022/09/15 07:04:09;0.00;0.00;0.62;0.00;0.00;0.62;6.23;3.13;;;21.40;39.30;;;;;;2249718;61;20400;-65
2022/09/15 07:06:55;0.00;0.00;0.62;0.00;0.00;0.62;5.40;3.00;;;21.40;39.30;;;;;;2265621;61;20376;-66
2022/09/15 07:09:40;0.00;0.00;0.62;0.00;0.00;0.62;5.20;2.70;;;21.40;39.30;;;;;;2250124;61;20416;-67
2022/09/15 07:12:24;0.00;0.00;0.62;0.00;0.00;0.62;3.33;2.40;;;21.40;39.30;;;;;;2249392;61;20472;-64
2022/09/15 07:15:10;0.00;0.00;0.62;0.00;0.00;0.62;4.13;2.27;;;21.40;39.30;;;;;;2249812;61;20353;-68
2022/09/15 07:17:55;0.00;0.00;0.62;0.00;0.00;0.62;3.00;1.93;;;21.40;39.40;;;;;;2249795;61;20364;-69
2022/09/15 07:20:41;0.00;0.00;0.62;0.00;0.00;0.62;4.57;2.70;;;21.40;39.50;;;;;;2249829;61;20437;-66
2022/09/15 07:23:26;0.00;0.00;0.62;0.00;0.00;0.62;2.90;2.23;;;21.40;39.60;;;;;;2249877;61;20513;-67
2022/09/15 07:26:13;0.00;0.00;0.62;0.00;0.00;0.62;3.00;2.20;;;21.40;39.60;;;;;;2249782;61;20415;-67
2022/09/15 07:29:00;0.00;0.00;0.62;0.00;0.00;0.62;5.07;2.40;;;21.50;39.70;;;;;;2249128;61;20372;-69
2022/09/15 07:31:45;0.00;0.00;0.62;0.00;0.00;0.62;5.70;2.03;;;21.50;39.70;;;;;;2249952;61;20442;-68
2022/09/15 07:34:31;0.00;0.00;0.62;0.00;0.00;0.62;3.70;1.90;;;21.50;39.70;;;;;;2248985;61;20365;-67
2022/09/15 07:37:19;0.00;0.00;0.62;0.00;0.00;0.62;4.80;1.90;;;21.50;39.60;;;;;;2249844;61;20437;-66
2022/09/15 07:40:05;0.00;0.00;0.62;0.00;0.00;0.62;4.73;1.60;;;21.50;39.70;;;;;;2249376;61;20369;-67
2022/09/15 07:42:50;0.00;0.00;0.62;0.00;0.00;0.62;3.50;1.80;;;21.50;39.70;;;;;;2249593;61;20385;-65
2022/09/15 07:45:35;0.00;0.00;0.62;0.00;0.00;0.62;3.00;1.77;;;21.50;39.60;;;;;;2251142;48;20543;-68
2022/09/15 07:48:20;0.00;0.00;0.62;0.00;0.00;0.62;3.83;2.07;;;21.50;39.60;;;;;;2253119;61;20621;-69
2022/09/15 07:51:05;0.00;0.00;0.62;0.00;0.00;0.62;3.50;1.70;;;21.60;39.70;;;;;;2251634;61;20363;-72
2022/09/15 07:53:53;0.00;0.00;0.62;0.00;0.00;0.62;2.87;1.40;;;21.60;39.60;;;;;;2253342;61;20591;-66
2022/09/15 07:56:37;0.00;0.00;0.62;0.00;0.00;0.62;3.63;1.47;;;21.60;39.50;;;;;;2253461;61;20368;-67
2022/09/15 07:59:22;0.00;0.00;0.62;0.00;0.00;0.62;3.13;1.60;;;21.70;39.60;;;;;;2253635;61;20683;-68
2022/09/15 08:02:17;0.00;0.00;0.62;0.00;0.00;0.62;2.40;1.40;;;21.70;39.50;;;;;;2253132;61;20419;-66
2022/09/15 08:05:03;0.00;0.00;0.62;0.00;0.00;0.62;2.97;1.30;;;21.80;39.50;;;;;;2252895;61;20423;-67
2022/09/15 08:07:47;0.00;0.00;0.62;0.00;0.00;0.62;4.20;1.27;;;21.80;39.40;;;;;;2249211;61;20372;-69
2022/09/15 08:10:36;0.00;0.00;0.62;0.00;0.00;0.62;2.07;1.20;;;21.90;39.50;;;;;;2249834;61;20579;-67
2022/09/15 08:13:23;0.00;0.00;0.62;0.00;0.00;0.62;2.07;1.20;;;21.90;39.40;;;;;;2249474;61;20388;-67
2022/09/15 08:16:11;0.00;0.00;0.62;0.00;0.00;0.62;1.53;1.10;;;21.90;39.30;;;;;;2249463;61;20433;-71
2022/09/15 08:18:56;0.00;0.00;0.62;0.00;0.00;0.62;1.50;0.90;;;22.00;39.30;;;;;;2249624;61;20760;-69
2022/09/15 08:21:40;0.00;0.00;0.62;0.00;0.00;0.62;2.10;1.20;;;22.00;39.20;;;;;;2249519;61;20404;-70
2022/09/15 08:24:25;0.00;0.00;0.62;0.00;0.00;0.62;2.13;1.17;;;22.10;39.20;;;;;;2249556;61;20400;-67
2022/09/15 08:27:11;0.00;0.00;0.62;0.00;0.00;0.62;1.80;0.90;;;22.10;39.00;;;;;;2249711;61;20364;-68
2022/09/15 08:29:55;0.00;0.00;0.62;0.00;0.00;0.62;1.77;1.17;;;22.20;39.10;;;;;;2249308;61;20369;-68
2022/09/15 08:32:40;0.00;0.00;0.62;0.00;0.00;0.62;1.60;0.90;;;22.20;39.00;;;;;;2249834;61;20399;-74
2022/09/15 08:35:25;0.00;0.00;0.62;0.00;0.00;0.62;2.03;1.10;;;22.30;39.00;;;;;;2249491;61;20373;-66
2022/09/15 08:38:09;0.00;0.00;0.62;0.00;0.00;0.62;1.50;1.00;;;22.30;38.90;;;;;;2249492;61;20344;-68
2022/09/15 08:41:00;0.00;0.00;0.62;0.00;0.00;0.62;1.50;0.80;;;22.40;38.90;;;;;;2249485;61;20740;-74
2022/09/15 08:43:55;0.00;0.00;0.62;0.00;0.00;0.62;2.73;0.97;;;22.40;38.80;;;;;;2253057;61;20396;-69
2022/09/15 08:46:46;0.00;0.00;0.62;0.00;0.00;0.62;2.00;0.93;;;22.50;39.50;;;;;;2252382;61;20391;-68
2022/09/15 08:49:39;0.00;0.00;0.62;0.00;0.00;0.62;1.97;0.97;;;22.50;38.70;;;;;;2252844;61;20399;-72
2022/09/15 08:52:32;0.00;0.00;0.62;0.00;0.00;0.62;1.60;0.93;;;22.60;39.40;;;;;;2252923;61;20740;-69
2022/09/15 08:55:35;0.00;0.00;0.62;0.00;0.00;0.62;1.60;0.90;;;22.60;39.30;;;;;;2253449;61;20403;-68
2022/09/15 08:58:22;0.00;0.00;0.62;0.00;0.00;0.62;1.80;0.90;;;22.70;38.60;;;;;;2253287;61;20388;-68
2022/09/15 09:01:25;0.00;0.00;0.62;0.00;0.00;0.62;1.67;1.10;;;22.70;38.50;;;;;;2252970;61;20566;-72
2022/09/15 09:04:41;0.00;0.00;0.62;0.00;0.00;0.62;1.70;0.93;;;22.80;38.60;;;;;;2253089;61;20390;-65
2022/09/15 09:07:58;0.00;0.00;0.62;0.00;0.00;0.62;1.50;0.83;;;22.90;38.60;;;;;;2252942;61;20388;-67
2022/09/15 09:10:50;0.00;0.00;0.62;0.00;0.00;0.62;1.63;1.00;;;22.90;39.20;;;;;;2252950;61;20763;-69
2022/09/15 09:13:42;0.00;0.00;0.62;0.00;0.00;0.62;1.93;0.90;;;23.00;38.60;;;;;;2252813;61;20442;-71
2022/09/15 09:16:48;0.00;0.00;0.62;0.00;0.00;0.62;2.00;1.00;;;23.00;38.50;;;;;;2253061;61;20720;-66
2022/09/15 09:20:02;0.00;0.00;0.62;0.00;0.00;0.62;1.63;0.80;;;23.10;38.50;;;;;;2487206;53;20430;-72
2022/09/15 09:22:51;0.00;0.00;0.62;0.00;0.00;0.62;1.80;1.10;;;23.10;38.40;;;;;;2252873;61;20407;-63
2022/09/15 09:25:37;0.00;0.00;0.62;0.00;0.00;0.62;2.03;0.90;;;23.20;39.10;;;;;;2711435;46;20409;-70
2022/09/15 09:28:30;0.00;0.00;0.62;0.00;0.00;0.62;1.30;0.80;;;23.20;38.30;;;;;;2249368;61;20368;-69
2022/09/15 09:31:20;0.00;0.00;0.62;0.00;0.00;0.62;1.70;0.93;;;23.20;38.20;;;;;;2248821;61;20413;-67
2022/09/15 09:34:19;0.00;0.00;0.62;0.00;0.00;0.62;1.80;0.90;;;23.30;38.30;;;;;;2249047;61;20368;-66
2022/09/15 09:37:10;0.00;0.00;0.62;0.00;0.00;0.62;2.00;1.10;;;23.30;38.30;;;;;;2250954;61;20407;-70
2022/09/15 09:39:54;0.00;0.00;0.62;0.00;0.00;0.62;1.30;0.73;;;23.40;38.40;;;;;;2253252;61;20626;-69
2022/09/15 09:42:39;0.00;0.00;0.62;0.00;0.00;0.62;1.80;1.20;;;23.50;38.50;;;;;;2253115;61;20778;-70
2022/09/15 09:45:25;0.00;0.00;0.62;0.00;0.00;0.62;1.80;0.93;;;23.50;38.50;;;;;;2252452;61;20404;-65
2022/09/15 09:48:17;0.00;0.00;0.62;0.00;0.00;0.62;1.87;0.90;;;23.50;38.50;;;;;;2252722;61;20591;-72
2022/09/15 09:51:04;0.00;0.00;0.62;0.00;0.00;0.62;2.10;1.10;;;23.60;38.50;;;;;;2252715;61;20763;-71
2022/09/15 09:53:52;0.00;0.00;0.62;0.00;0.00;0.62;1.40;0.80;;;23.60;38.20;;;;;;2253186;61;20500;-70
2022/09/15 09:56:39;0.00;0.00;0.62;0.00;0.00;0.62;1.37;0.67;;;23.70;38.30;;;;;;2252961;61;20653;-71
2022/09/15 09:59:40;0.00;0.00;0.62;0.00;0.00;0.62;1.77;1.00;;;23.70;38.20;;;;;;2252760;61;20420;-70
2022/09/15 10:02:26;0.00;0.00;0.62;0.00;0.00;0.62;1.90;1.00;;;23.80;38.20;;;;;;2252198;61;20665;-67
2022/09/15 10:05:19;0.00;0.00;0.62;0.00;0.00;0.62;1.60;0.87;;;23.80;38.20;;;;;;2252675;61;20615;-67
2022/09/15 10:08:05;0.00;0.00;0.62;0.00;0.00;0.62;1.87;1.00;;;23.90;38.10;;;;;;2252760;61;20368;-69
2022/09/15 10:10:52;0.00;0.00;0.62;0.00;0.00;0.62;1.77;0.97;;;23.90;38.00;;;;;;2251809;61;20418;-75
2022/09/15 10:13:51;0.00;0.00;0.62;0.00;0.00;0.62;1.70;1.10;;;24.00;37.90;;;;;;2252457;61;20411;-70
2022/09/15 10:16:36;0.00;0.00;0.62;0.00;0.00;0.62;2.20;1.20;;;24.00;37.90;;;;;;2253385;61;20728;-65
2022/09/15 10:19:20;0.00;0.00;0.62;0.00;0.00;0.62;1.40;0.80;;;24.10;37.80;;;;;;2520039;53;20367;-66
2022/09/15 10:22:05;0.00;0.00;0.62;0.00;0.00;0.62;1.60;0.90;;;24.10;37.70;;;;;;2252843;61;20503;-67
2022/09/15 10:24:52;0.00;0.00;0.62;0.00;0.00;0.62;1.77;1.00;;;24.10;37.70;;;;;;2253275;61;20396;-69
2022/09/15 10:27:36;0.00;0.00;0.62;0.00;0.00;0.62;1.60;0.80;;;24.20;37.70;;;;;;2253449;61;20477;-68
2022/09/15 10:30:23;0.00;0.00;0.62;0.00;0.00;0.62;1.87;1.00;;;24.20;37.60;;;;;;2252864;61;20364;-68
2022/09/15 10:33:23;0.00;0.00;0.62;0.00;0.00;0.62;5.53;1.30;;;24.20;37.40;;;;;;2253269;61;20380;-69
2022/09/15 10:36:14;0.00;0.00;0.62;0.00;0.00;0.62;2.67;0.90;;;24.30;37.40;;;;;;2253118;61;20462;-66
2022/09/15 10:39:09;0.00;0.00;0.62;0.00;0.00;0.62;1.40;0.80;;;24.30;37.30;;;;;;2253577;61;20363;-69
2022/09/15 10:42:08;0.00;0.00;0.62;0.00;0.00;0.62;2.53;0.80;;;24.30;37.30;;;;;;2253593;61;20363;-70
2022/09/15 10:45:09;0.00;0.00;0.62;0.00;0.00;0.62;1.93;0.90;;;24.40;37.30;;;;;;2253213;61;20860;-69
2022/09/15 10:48:35;0.00;0.00;0.62;0.00;0.00;0.62;1.87;0.80;;;24.40;37.30;;;;;;2253274;61;20367;-69
2022/09/15 10:51:33;0.00;0.00;0.62;0.00;0.00;0.62;1.60;0.77;;;24.50;37.30;;;;;;2252585;61;20794;-68
2022/09/15 10:54:43;0.00;0.00;0.62;0.00;0.00;0.62;2.43;1.00;;;24.50;37.20;;;;;;2253178;61;20375;-69
2022/09/15 10:57:56;0.00;0.00;0.62;0.00;0.00;0.62;1.40;0.90;;;24.50;37.10;;;;;;2253598;61;20408;-67
2022/09/15 11:00:50;0.00;0.00;0.62;0.00;0.00;0.62;2.20;0.80;;;24.50;37.10;;;;;;2253633;61;20395;-70
2022/09/15 11:04:01;0.00;0.00;0.62;0.00;0.00;0.62;1.40;0.70;;;24.60;37.00;;;;;;2253329;61;20422;-69
2022/09/15 11:06:55;0.00;0.00;0.62;0.00;0.00;0.62;1.47;0.77;;;24.60;37.10;;;;;;2253264;61;20370;-70